Time;durP1;ratioP1;P1;durP2;ratioP2;P2;SDS_P1;SDS_P2;PMS_P1;PMS_P2;Temp;Humidity;BMP_temperature;BMP_pressure;BME280_temperature;BME280_humidity;BME280_pressure;Samples;Min_cycle;Max_cycle;Signal;HPM_P1;HPM_P2
2023/06/17 00:00:02;;;;;;;20.88;6.05;;;;;;;15.39;85.41;101514.31;4985825;28;20031;-63
2023/06/17 00:02:31;;;;;;;16.27;5.82;;;;;;;15.32;85.65;101512.56;4988854;28;20042;-66
2023/06/17 00:04:56;;;;;;;16.95;6.00;;;;;;;15.32;85.93;101516.09;4985259;28;20035;-66
2023/06/17 00:07:22;;;;;;;19.55;6.07;;;;;;;15.27;85.98;101515.22;4987801;28;20026;-70
2023/06/17 00:09:47;;;;;;;15.80;5.63;;;;;;;15.22;86.23;101517.03;4986956;28;20109;-64
2023/06/17 00:12:12;;;;;;;18.25;6.00;;;;;;;15.27;84.92;101515.22;4986301;28;20245;-60
2023/06/17 00:14:40;;;;;;;17.70;6.07;;;;;;;15.22;85.57;101517.03;4987531;28;20027;-66
2023/06/17 00:17:08;;;;;;;18.05;6.03;;;;;;;15.18;84.08;101509.06;4986209;28;20110;-66
2023/06/17 00:19:35;;;;;;;18.08;6.00;;;;;;;15.07;83.66;101503.75;4987849;28;20037;-67
2023/06/17 00:22:00;;;;;;;17.00;5.80;;;;;;;14.88;84.70;101502.94;4985318;28;20062;-60
2023/06/17 00:24:26;;;;;;;17.10;5.95;;;;;;;14.75;85.22;101494.09;4987051;28;20065;-66
2023/06/17 00:26:51;;;;;;;17.20;5.97;;;;;;;14.68;86.92;101495.00;4985146;28;20084;-60
2023/06/17 00:29:17;;;;;;;16.38;5.90;;;;;;;14.71;88.29;101490.59;4985039;28;20074;-65
2023/06/17 00:31:42;;;;;;;17.70;5.95;;;;;;;14.71;89.20;101487.91;4987810;28;20172;-61
2023/06/17 00:34:07;;;;;;;17.15;6.05;;;;;;;14.68;89.70;101492.34;4985700;28;20022;-60
2023/06/17 00:36:33;;;;;;;18.50;6.40;;;;;;;14.60;91.18;101490.56;4986870;28;20122;-62
2023/06/17 00:38:58;;;;;;;18.45;6.35;;;;;;;14.53;91.99;101498.56;4986862;28;20477;-66
2023/06/17 00:41:23;;;;;;;19.48;6.53;;;;;;;14.56;91.68;101493.22;4986120;28;20026;-62
2023/06/17 00:43:49;;;;;;;19.08;6.45;;;;;;;14.39;93.37;101493.28;4987419;28;20041;-66
2023/06/17 00:46:35;;;;;;;17.13;6.10;;;;;;;14.51;91.06;101495.03;4984604;28;20490;-66
2023/06/17 00:49:01;;;;;;;19.05;6.07;;;;;;;14.38;93.24;101491.50;4985757;28;20030;-66
2023/06/17 00:51:28;;;;;;;18.17;6.18;;;;;;;14.30;93.30;101492.38;4987033;28;20663;-61
2023/06/17 00:53:53;;;;;;;17.88;6.10;;;;;;;14.22;93.64;101493.28;4987331;28;20031;-60
2023/06/17 00:56:19;;;;;;;18.45;6.05;;;;;;;14.17;93.49;101503.00;4986114;28;20117;-61
2023/06/17 00:58:45;;;;;;;18.27;5.93;;;;;;;14.13;94.11;101495.03;4985173;28;20045;-66
2023/06/17 01:01:10;;;;;;;19.08;6.57;;;;;;;14.18;94.37;101492.38;4985794;28;20041;-64
2023/06/17 01:03:36;;;;;;;19.40;6.32;;;;;;;14.17;95.31;101495.94;4985678;28;20035;-66
2023/06/17 01:06:24;;;;;;;18.35;6.57;;;;;;;14.00;97.32;101492.41;4987361;28;20475;-60
2023/06/17 01:09:01;;;;;;;18.40;6.40;;;;;;;13.94;98.65;101490.63;4986524;28;20502;-62
2023/06/17 01:11:29;;;;;;;18.23;6.43;;;;;;;13.84;100.00;101491.50;4980474;28;20034;-61
2023/06/17 01:13:56;;;;;;;20.27;6.82;;;;;;;13.86;100.00;101495.03;4987218;28;20069;-61
2023/06/17 01:16:24;;;;;;;18.77;6.70;;;;;;;13.91;100.00;101488.84;4987836;28;20100;-61
2023/06/17 01:18:52;;;;;;;22.45;6.68;;;;;;;13.98;100.00;101491.50;4980100;28;20529;-60
2023/06/17 01:21:17;;;;;;;18.73;6.25;;;;;;;14.05;100.00;101485.28;4987095;28;20103;-66
2023/06/17 01:23:44;;;;;;;19.27;6.80;;;;;;;14.10;100.00;101484.41;4984996;28;20034;-60
2023/06/17 01:26:10;;;;;;;18.42;6.43;;;;;;;14.05;100.00;101478.22;4985812;28;20402;-66
2023/06/17 01:28:38;;;;;;;19.55;6.32;;;;;;;14.10;100.00;101487.06;4985397;28;20027;-61
2023/06/17 01:31:04;;;;;;;18.60;7.03;;;;;;;14.04;100.00;101478.22;4986143;28;20023;-66
2023/06/17 01:33:31;;;;;;;18.85;6.75;;;;;;;13.93;100.00;101476.41;4985232;28;20022;-65
2023/06/17 01:36:01;;;;;;;20.15;6.90;;;;;;;13.86;100.00;101481.75;4985368;28;20034;-66
2023/06/17 01:38:37;;;;;;;17.45;6.78;;;;;;;13.69;100.00;101479.97;4985243;28;20478;-61
2023/06/17 01:41:08;;;;;;;20.25;6.88;;;;;;;13.51;100.00;101482.56;4986536;28;20536;-60
2023/06/17 01:43:35;;;;;;;17.80;7.03;;;;;;;13.39;100.00;101478.13;4980111;28;20031;-60
2023/06/17 01:46:01;;;;;;;19.05;7.10;;;;;;;13.30;100.00;101483.38;4979398;28;20041;-60
2023/06/17 01:48:27;;;;;;;19.13;7.35;;;;;;;13.27;100.00;101486.03;4986410;28;20400;-62
2023/06/17 01:50:52;;;;;;;19.30;7.25;;;;;;;13.18;100.00;101482.44;4984128;28;20034;-60
2023/06/17 01:53:18;;;;;;;20.10;7.50;;;;;;;13.21;100.00;101479.81;4986258;28;20470;-60
2023/06/17 01:55:43;;;;;;;19.60;7.50;;;;;;;13.22;100.00;101478.94;4984303;28;20548;-61
2023/06/17 01:58:08;;;;;;;20.10;7.47;;;;;;;13.18;100.00;101478.91;4986992;28;20053;-66
2023/06/17 02:00:34;;;;;;;19.52;7.72;;;;;;;13.10;100.00;101488.59;4984563;28;20027;-63
2023/06/17 02:02:59;;;;;;;19.55;7.40;;;;;;;13.14;100.00;101480.66;4986097;28;20093;-66
2023/06/17 02:05:25;;;;;;;19.20;7.68;;;;;;;13.16;100.00;101481.53;4986572;28;20034;-66
2023/06/17 02:07:52;;;;;;;19.13;7.30;;;;;;;13.10;100.00;101470.03;4985939;28;20041;-65
2023/06/17 02:10:18;;;;;;;21.67;7.78;;;;;;;12.96;100.00;101472.63;4983106;28;20466;-65
2023/06/17 02:12:43;;;;;;;19.15;7.70;;;;;;;12.85;100.00;101475.22;4985681;28;20022;-61
2023/06/17 02:15:09;;;;;;;20.13;7.95;;;;;;;12.81;100.00;101474.31;4984658;28;20031;-66
2023/06/17 02:17:35;;;;;;;19.98;8.40;;;;;;;12.82;100.00;101472.56;4986146;28;20089;-65
2023/06/17 02:20:04;;;;;;;21.30;8.13;;;;;;;12.68;100.00;101472.47;4983864;28;20039;-65
2023/06/17 02:22:29;;;;;;;19.67;7.72;;;;;;;12.75;100.00;101466.31;4985235;28;20552;-66
2023/06/17 02:24:55;;;;;;;19.13;8.00;;;;;;;12.78;100.00;101468.13;4983916;28;20073;-61
2023/06/17 02:27:20;;;;;;;18.85;7.70;;;;;;;12.69;100.00;101463.66;4984826;28;20066;-60
2023/06/17 02:29:46;;;;;;;19.10;8.00;;;;;;;12.69;100.00;101463.66;4984665;28;20157;-69
2023/06/17 02:32:12;;;;;;;20.92;8.15;;;;;;;12.59;100.00;101469.78;4983759;28;20075;-69
2023/06/17 02:34:37;;;;;;;20.70;8.15;;;;;;;12.63;100.00;101458.31;4985533;28;20038;-69
2023/06/17 02:37:02;;;;;;;19.40;8.18;;;;;;;12.66;100.00;101468.94;4982528;28;20103;-67
2023/06/17 02:39:28;;;;;;;19.58;8.07;;;;;;;12.81;100.00;101460.16;4982835;28;20042;-69
2023/06/17 02:41:53;;;;;;;19.02;7.90;;;;;;;12.58;100.00;101470.66;4985839;28;20022;-69
2023/06/17 02:44:19;;;;;;;20.23;7.88;;;;;;;12.39;100.00;101454.63;4982475;28;20256;-69
2023/06/17 02:46:45;;;;;;;19.25;8.15;;;;;;;12.41;100.00;101458.19;4984967;28;20045;-70
2023/06/17 02:49:10;;;;;;;20.88;7.80;;;;;;;12.41;100.00;101458.19;4983599;28;20500;-69
2023/06/17 02:51:36;;;;;;;19.63;8.15;;;;;;;12.46;100.00;101461.72;4984993;28;20114;-70
2023/06/17 02:54:02;;;;;;;19.85;7.60;;;;;;;12.52;100.00;101461.78;4983908;28;20041;-68
2023/06/17 02:56:27;;;;;;;19.77;8.02;;;;;;;12.62;100.00;101451.22;4983391;28;20031;-61
2023/06/17 02:58:52;;;;;;;21.58;8.52;;;;;;;12.59;100.00;101451.22;4984739;28;20034;-69
2023/06/17 03:01:21;;;;;;;19.88;8.35;;;;;;;12.52;100.00;101455.59;4982443;28;20384;-68
2023/06/17 03:03:46;;;;;;;20.83;8.20;;;;;;;12.52;100.00;101455.59;4981795;28;20034;-66
2023/06/17 03:06:12;;;;;;;20.42;8.27;;;;;;;12.46;100.00;101445.81;4985619;28;20500;-70
2023/06/17 03:08:40;;;;;;;19.77;8.13;;;;;;;12.30;100.00;101452.78;4978291;28;20023;-63
2023/06/17 03:11:05;;;;;;;18.40;8.27;;;;;;;12.26;100.00;101445.72;4985015;28;20034;-69
2023/06/17 03:13:31;;;;;;;20.38;8.50;;;;;;;12.21;100.00;101448.31;4982715;28;20029;-60
2023/06/17 03:15:58;;;;;;;19.45;8.50;;;;;;;12.21;100.00;101450.97;4986142;28;20512;-66
2023/06/17 03:18:24;;;;;;;19.42;8.43;;;;;;;12.21;100.00;101455.38;4983027;28;20043;-66
2023/06/17 03:20:50;;;;;;;20.45;8.23;;;;;;;12.17;100.00;101451.84;4983578;28;20032;-62
2023/06/17 03:23:15;;;;;;;20.65;8.57;;;;;;;12.17;100.00;101443.88;4983995;28;20499;-65
2023/06/17 03:25:41;;;;;;;20.15;8.55;;;;;;;12.10;100.00;101446.47;4982258;28;20145;-66
2023/06/17 03:28:07;;;;;;;21.27;8.82;;;;;;;12.13;100.00;101443.84;4984248;28;20093;-65
2023/06/17 03:30:32;;;;;;;19.50;8.60;;;;;;;11.97;100.00;101443.72;4982886;28;20522;-61
2023/06/17 03:32:58;;;;;;;21.77;9.30;;;;;;;11.93;100.00;101443.66;4984819;28;20026;-62
2023/06/17 03:35:24;;;;;;;22.25;9.25;;;;;;;11.91;100.00;101440.09;4981944;28;20031;-59
2023/06/17 03:37:50;;;;;;;21.20;8.88;;;;;;;11.85;100.00;101446.22;4984894;28;20034;-66
2023/06/17 03:40:15;;;;;;;23.50;9.88;;;;;;;11.80;100.00;101442.66;4984451;28;20038;-64
2023/06/17 03:42:40;;;;;;;20.23;9.38;;;;;;;11.69;100.00;101442.56;4982327;28;20218;-62
2023/06/17 03:45:07;;;;;;;20.38;9.07;;;;;;;11.72;100.00;101439.94;4983838;28;20039;-64
2023/06/17 03:47:32;;;;;;;19.70;8.85;;;;;;;11.75;100.00;101433.78;4981984;28;20031;-60
2023/06/17 03:49:58;;;;;;;20.73;8.88;;;;;;;11.79;100.00;101431.16;4982952;28;20074;-66
2023/06/17 03:52:23;;;;;;;21.08;9.13;;;;;;;11.88;100.00;101435.66;4984500;28;20022;-65
2023/06/17 03:54:49;;;;;;;22.65;9.48;;;;;;;11.84;100.00;101432.09;4982234;28;20030;-62
2023/06/17 03:57:14;;;;;;;20.50;9.45;;;;;;;11.90;100.00;101430.38;4984851;28;20031;-60
2023/06/17 03:59:40;;;;;;;21.73;9.52;;;;;;;11.91;100.00;101426.84;4981574;28;20027;-66
2023/06/17 04:02:05;;;;;;;20.42;9.73;;;;;;;11.98;100.00;101431.34;4984444;28;20465;-66
2023/06/17 04:04:32;;;;;;;23.05;9.95;;;;;;;12.10;100.00;101434.13;4982066;28;20030;-63
2023/06/17 04:06:57;;;;;;;21.50;8.82;;;;;;;12.19;100.00;101435.94;4981525;28;20090;-66
2023/06/17 04:09:23;;;;;;;22.38;9.98;;;;;;;12.32;100.00;101434.25;4983981;28;20062;-60
2023/06/17 04:11:48;;;;;;;20.77;9.65;;;;;;;12.37;100.00;101432.53;4982912;28;20166;-60
2023/06/17 04:14:13;;;;;;;21.15;9.85;;;;;;;12.34;100.00;101433.38;4982764;28;20030;-70
2023/06/17 04:16:41;;;;;;;21.65;10.05;;;;;;;12.43;100.00;101440.50;4984591;28;20031;-71
2023/06/17 04:19:09;;;;;;;21.85;10.23;;;;;;;12.47;100.00;101444.97;4982769;28;20034;-70
2023/06/17 04:21:35;;;;;;;21.25;10.52;;;;;;;12.48;100.00;101440.53;4983726;28;20038;-70
2023/06/17 04:24:00;;;;;;;25.10;11.48;;;;;;;12.43;100.00;101439.63;4982165;28;20027;-70
2023/06/17 04:26:27;;;;;;;23.13;10.90;;;;;;;12.50;100.00;101442.31;4984364;28;20058;-70
2023/06/17 04:28:53;;;;;;;22.80;12.43;;;;;;;12.49;100.00;101440.53;4980301;28;20035;-70
2023/06/17 04:31:19;;;;;;;21.50;12.30;;;;;;;12.54;100.00;101444.13;4981480;28;20039;-70
2023/06/17 04:33:44;;;;;;;23.90;12.45;;;;;;;12.63;100.00;101442.41;4984384;28;20533;-70
2023/06/17 04:36:10;;;;;;;23.02;12.23;;;;;;;12.71;100.00;101441.56;4984511;28;20026;-70
2023/06/17 04:38:42;;;;;;;23.52;12.70;;;;;;;12.69;100.00;101442.44;4986803;28;20113;-70
2023/06/17 04:41:08;;;;;;;23.52;12.57;;;;;;;12.75;100.00;101439.81;4985725;28;20438;-71
2023/06/17 04:43:36;;;;;;;23.60;12.63;;;;;;;12.86;100.00;101446.03;4986784;28;20093;-70
2023/06/17 04:46:02;;;;;;;22.50;12.27;;;;;;;12.80;100.00;101445.13;4985709;28;20034;-69
2023/06/17 04:48:29;;;;;;;23.90;12.68;;;;;;;12.83;100.00;101450.44;4986254;28;20038;-70
2023/06/17 04:50:57;;;;;;;25.92;13.90;;;;;;;12.87;100.00;101450.47;4986711;28;20062;-70
2023/06/17 04:53:23;;;;;;;24.90;15.38;;;;;;;12.97;100.00;101451.38;4985972;28;20030;-70
2023/06/17 04:55:49;;;;;;;24.63;16.50;;;;;;;13.09;100.00;101442.59;4986487;28;20030;-71
2023/06/17 04:58:15;;;;;;;26.30;17.17;;;;;;;13.12;100.00;101447.03;4985174;28;20106;-69
2023/06/17 05:00:40;;;;;;;26.52;15.95;;;;;;;13.22;100.00;101455.03;4987492;28;20442;-70
2023/06/17 05:03:05;;;;;;;25.48;16.42;;;;;;;13.30;100.00;101456.84;4984510;28;20039;-70
2023/06/17 05:05:31;;;;;;;26.63;18.10;;;;;;;13.33;100.00;101452.41;4985376;28;20047;-69
2023/06/17 05:07:56;;;;;;;27.02;17.10;;;;;;;13.52;100.00;101458.66;4987467;28;20034;-70
2023/06/17 05:10:21;;;;;;;25.67;17.52;;;;;;;13.64;100.00;101462.25;4984765;28;20125;-64
2023/06/17 05:12:47;;;;;;;27.73;19.23;;;;;;;13.77;100.00;101466.69;4986014;28;20027;-68
2023/06/17 05:15:12;;;;;;;27.40;19.48;;;;;;;13.84;100.00;101471.13;4986100;28;20076;-70
2023/06/17 05:17:37;;;;;;;27.88;20.92;;;;;;;13.93;100.00;101465.78;4986134;28;20038;-70
2023/06/17 05:20:04;;;;;;;28.58;21.30;;;;;;;14.06;100.00;101464.03;4986517;28;20049;-70
2023/06/17 05:22:29;;;;;;;29.95;22.50;;;;;;;14.17;100.00;101468.44;4984533;28;20602;-69
2023/06/17 05:24:55;;;;;;;29.95;23.10;;;;;;;14.26;100.00;101465.81;4987062;28;20125;-69
2023/06/17 05:27:20;;;;;;;31.02;23.95;;;;;;;14.27;100.00;101479.09;4983694;28;20046;-70
2023/06/17 05:29:45;;;;;;;28.85;23.15;;;;;;;14.37;100.00;101460.47;4987173;28;20162;-69
2023/06/17 05:32:11;;;;;;;30.48;24.00;;;;;;;14.44;100.00;101462.22;4985473;28;20489;-66
2023/06/17 05:34:36;;;;;;;30.30;23.33;;;;;;;14.58;100.00;101463.06;4983569;28;20057;-69
2023/06/17 05:37:02;;;;;;;30.08;22.95;;;;;;;14.73;100.00;101462.19;4984472;28;20039;-69
2023/06/17 05:39:27;;;;;;;30.75;23.67;;;;;;;14.89;100.00;101467.47;4985333;28;20090;-69
2023/06/17 05:41:52;;;;;;;29.45;23.13;;;;;;;15.01;100.00;101467.41;4986674;28;20027;-69
2023/06/17 05:44:18;;;;;;;29.52;22.70;;;;;;;15.06;100.00;101470.06;4985251;28;20031;-66
2023/06/17 05:46:43;;;;;;;29.75;22.08;;;;;;;15.20;100.00;101468.19;4981793;28;20085;-70
2023/06/17 05:49:08;;;;;;;28.73;22.45;;;;;;;15.23;100.00;101460.22;4985776;28;20046;-70
2023/06/17 05:51:34;;;;;;;28.55;22.70;;;;;;;15.31;100.00;101465.50;4983329;28;20482;-66
2023/06/17 05:53:59;;;;;;;28.65;22.25;;;;;;;15.37;100.00;101461.91;4986367;28;20057;-70
2023/06/17 05:56:26;;;;;;;30.58;22.15;;;;;;;15.41;100.00;101467.22;4986663;28;20050;-68
2023/06/17 05:58:51;;;;;;;30.27;22.52;;;;;;;15.52;100.00;101464.47;4983681;28;20081;-68
2023/06/17 06:01:17;;;;;;;30.70;22.33;;;;;;;15.62;100.00;101466.19;4985336;28;20043;-69
2023/06/17 06:03:42;;;;;;;29.60;22.35;;;;;;;15.67;100.00;101467.03;4985021;28;20354;-69
2023/06/17 06:06:08;;;;;;;29.38;22.45;;;;;;;15.81;100.00;101463.44;4986150;28;20081;-63
2023/06/17 06:08:33;;;;;;;29.27;22.27;;;;;;;15.88;100.00;101459.81;4985005;28;20033;-70
2023/06/17 06:10:59;;;;;;;30.70;23.20;;;;;;;15.94;100.00;101459.75;4983633;28;20049;-68
2023/06/17 06:13:24;;;;;;;30.50;22.80;;;;;;;15.99;100.00;101462.41;4986531;28;20038;-70
2023/06/17 06:15:50;;;;;;;30.83;24.02;;;;;;;16.08;100.00;101467.66;4983052;28;20497;-69
2023/06/17 06:18:15;;;;;;;29.88;22.45;;;;;;;16.20;100.00;101462.19;4986015;28;20382;-70
2023/06/17 06:20:41;;;;;;;30.85;23.48;;;;;;;16.24;100.00;101463.06;4982961;28;20054;-67
2023/06/17 06:23:06;;;;;;;28.05;21.48;;;;;;;16.42;100.00;101463.78;4985855;28;20137;-69
2023/06/17 06:25:31;;;;;;;30.13;21.70;;;;;;;16.53;100.00;101459.22;4983520;28;20054;-68
2023/06/17 06:27:58;;;;;;;27.50;21.15;;;;;;;16.64;100.00;101454.63;4984396;28;20386;-63
2023/06/17 06:30:24;;;;;;;27.45;20.85;;;;;;;16.78;100.00;101461.63;4985652;28;20113;-69
2023/06/17 06:32:50;;;;;;;28.70;22.50;;;;;;;16.87;100.00;101459.75;4984227;28;20508;-69
2023/06/17 06:35:15;;;;;;;29.15;21.70;;;;;;;16.95;100.00;101457.00;4983453;28;20031;-70
2023/06/17 06:37:41;;;;;;;28.13;21.88;;;;;;;17.06;100.00;101459.53;4985699;28;20038;-69
2023/06/17 06:40:07;;;;;;;27.73;22.23;;;;;;;17.22;100.00;101449.53;4982454;28;20415;-68
2023/06/17 06:42:32;;;;;;;29.33;22.42;;;;;;;17.31;100.00;101460.06;4986411;28;20037;-69
2023/06/17 06:44:57;;;;;;;28.67;21.52;;;;;;;17.37;100.00;101460.00;4982452;28;20401;-69
2023/06/17 06:47:23;;;;;;;30.17;22.45;;;;;;;17.46;100.00;101458.09;4985300;28;20076;-69
2023/06/17 06:49:48;;;;;;;30.27;22.30;;;;;;;17.51;100.00;101454.44;4983456;28;20037;-69
2023/06/17 06:52:14;;;;;;;26.20;19.80;;;;;;;17.65;98.42;101461.38;4983993;28;20317;-69
2023/06/17 06:54:39;;;;;;;27.10;19.48;;;;;;;17.74;98.25;101470.13;4984989;28;20110;-68
2023/06/17 06:57:04;;;;;;;26.63;18.10;;;;;;;17.83;96.37;101468.25;4984713;28;20034;-69
2023/06/17 06:59:30;;;;;;;25.85;17.80;;;;;;;17.90;87.18;101468.13;4982394;28;20065;-69
2023/06/17 07:01:55;;;;;;;24.58;18.02;;;;;;;18.01;83.61;101462.59;4985754;28;20029;-69
2023/06/17 07:04:20;;;;;;;26.95;18.42;;;;;;;18.11;82.94;101469.59;4978430;28;20035;-69
2023/06/17 07:06:46;;;;;;;26.83;19.00;;;;;;;18.22;80.67;101468.50;4986204;28;20030;-69
2023/06/17 07:09:12;;;;;;;27.75;19.90;;;;;;;18.30;80.59;101461.22;4982173;28;20150;-63
2023/06/17 07:11:37;;;;;;;26.63;19.20;;;;;;;18.37;76.25;101470.91;4984162;28;20026;-66
2023/06/17 07:14:02;;;;;;;26.40;18.88;;;;;;;18.51;75.71;101467.06;4983344;28;20034;-63
2023/06/17 07:16:28;;;;;;;25.63;18.10;;;;;;;18.60;73.57;101467.78;4981741;28;20382;-64
2023/06/17 07:18:53;;;;;;;25.95;18.35;;;;;;;18.68;71.57;101470.31;4985601;28;20031;-61
2023/06/17 07:21:18;;;;;;;25.92;18.13;;;;;;;18.77;70.55;101464.78;4984333;28;20027;-63
2023/06/17 07:23:44;;;;;;;25.75;16.98;;;;;;;18.92;70.98;101466.31;4982311;28;20027;-60
2023/06/17 07:26:09;;;;;;;25.58;18.15;;;;;;;18.99;72.86;101459.91;4985182;28;20090;-62
2023/06/17 07:28:35;;;;;;;24.63;15.15;;;;;;;19.21;67.39;101474.63;4982174;28;20466;-61
2023/06/17 07:31:01;;;;;;;23.02;13.55;;;;;;;19.28;61.75;101462.84;4986944;28;20042;-60
2023/06/17 07:33:26;;;;;;;24.88;15.50;;;;;;;19.42;66.18;101463.44;4982546;28;20027;-62
2023/06/17 07:35:52;;;;;;;23.55;13.57;;;;;;;19.54;64.81;101461.41;4984067;28;20035;-62
2023/06/17 07:38:18;;;;;;;21.45;11.35;;;;;;;19.67;58.01;101466.44;4984030;28;20080;-60
2023/06/17 07:40:46;;;;;;;23.00;12.85;;;;;;;19.80;60.85;101464.34;4982475;28;20034;-63
2023/06/17 07:43:12;;;;;;;22.35;12.63;;;;;;;19.87;61.20;101472.28;4984191;28;20393;-62
2023/06/17 07:45:37;;;;;;;23.67;11.85;;;;;;;19.93;59.12;101469.44;4983184;28;20041;-64
2023/06/17 07:48:03;;;;;;;23.08;12.15;;;;;;;19.97;56.25;101463.09;4984183;28;20041;-64
2023/06/17 07:50:28;;;;;;;23.58;11.15;;;;;;;20.12;56.83;101461.81;4981693;28;20033;-61
2023/06/17 07:52:53;;;;;;;22.92;14.13;;;;;;;20.21;54.64;101461.56;4985047;28;20034;-64
2023/06/17 07:55:19;;;;;;;23.13;13.48;;;;;;;20.39;54.97;101462.88;4984416;28;20073;-63
2023/06/17 07:57:44;;;;;;;24.13;13.68;;;;;;;20.55;54.66;101461.53;4981750;28;20069;-62
2023/06/17 08:00:12;;;;;;;24.60;14.95;;;;;;;20.71;54.72;101463.84;4984402;28;20062;-61
2023/06/17 08:02:41;;;;;;;24.45;15.38;;;;;;;20.80;56.04;101454.63;4982412;28;20098;-60
2023/06/17 08:05:08;;;;;;;24.20;12.68;;;;;;;20.93;55.29;101453.34;4983846;28;20375;-64
2023/06/17 08:07:34;;;;;;;20.23;9.90;;;;;;;21.15;51.97;101450.91;4983726;28;20097;-64
2023/06/17 08:09:59;;;;;;;22.45;10.63;;;;;;;21.35;50.57;101452.97;4984305;28;20035;-69
2023/06/17 08:12:25;;;;;;;22.83;10.27;;;;;;;21.48;50.73;101452.59;4986973;28;20030;-69
2023/06/17 08:14:51;;;;;;;22.02;9.43;;;;;;;21.62;49.38;101446.81;4986134;28;20034;-69
2023/06/17 08:17:16;;;;;;;21.10;9.23;;;;;;;21.77;47.88;101449.88;4988127;28;20038;-69
2023/06/17 08:19:42;;;;;;;19.50;7.50;;;;;;;21.98;43.83;101450.09;4984610;28;20034;-69
2023/06/17 08:22:08;;;;;;;19.83;7.75;;;;;;;22.16;43.77;101447.69;4988759;28;20031;-68
2023/06/17 08:24:33;;;;;;;19.00;7.60;;;;;;;22.33;42.30;101450.72;4985092;28;20026;-68
2023/06/17 08:26:59;;;;;;;21.10;10.35;;;;;;;22.48;43.79;101454.66;4987091;28;20461;-68
2023/06/17 08:29:25;;;;;;;21.00;10.73;;;;;;;22.49;45.26;101448.34;4986411;28;20049;-69
2023/06/17 08:31:51;;;;;;;22.15;11.05;;;;;;;22.61;44.87;101445.19;4985629;28;20089;-69
2023/06/17 08:34:17;;;;;;;22.02;11.30;;;;;;;22.72;43.52;101441.25;4986835;28;20030;-66
2023/06/17 08:36:44;;;;;;;22.05;10.95;;;;;;;22.73;43.03;101440.31;4986689;28;20113;-69
2023/06/17 08:39:10;;;;;;;22.27;11.52;;;;;;;22.88;43.64;101437.03;4985743;28;20470;-68
2023/06/17 08:41:40;;;;;;;22.90;10.75;;;;;;;23.10;44.03;101438.91;4987533;28;20030;-69
2023/06/17 08:44:08;;;;;;;22.23;10.88;;;;;;;23.28;44.62;101438.22;4985984;28;20062;-68
2023/06/17 08:46:34;;;;;;;20.67;9.90;;;;;;;23.44;44.84;101441.19;4986185;28;20034;-68
2023/06/17 08:49:00;;;;;;;20.88;9.93;;;;;;;23.32;43.72;101437.16;4985489;28;20081;-68
2023/06/17 08:51:27;;;;;;;20.75;9.30;;;;;;;23.37;45.11;101441.50;4987446;28;20025;-68
2023/06/17 08:53:53;;;;;;;19.30;8.10;;;;;;;23.58;42.62;101443.31;4984533;28;20031;-69
2023/06/17 08:56:18;;;;;;;19.13;8.07;;;;;;;23.72;41.31;101440.06;4985844;28;20058;-69
2023/06/17 08:58:44;;;;;;;19.17;8.38;;;;;;;23.83;40.57;101442.31;4987715;28;20478;-69
2023/06/17 09:01:13;;;;;;;19.25;8.32;;;;;;;23.96;41.41;101440.88;4984333;28;20078;-69
2023/06/17 09:03:41;;;;;;;19.48;8.57;;;;;;;24.10;41.39;101439.41;4980519;28;20026;-69
2023/06/17 09:06:20;;;;;;;20.65;8.85;;;;;;;24.10;40.41;101445.72;4987017;28;20068;-62
2023/06/17 09:08:46;;;;;;;20.38;8.60;;;;;;;24.19;39.79;101437.19;4987560;28;20054;-61
2023/06/17 09:11:12;;;;;;;18.73;7.95;;;;;;;24.36;40.37;101441.88;4986151;28;20038;-64
2023/06/17 09:13:37;;;;;;;19.15;8.15;;;;;;;24.45;42.18;101436.97;4984841;28;20037;-63
2023/06/17 09:16:03;;;;;;;18.10;7.35;;;;;;;24.45;41.58;101434.28;4987623;28;20084;-63
2023/06/17 09:18:35;;;;;;;19.27;7.70;;;;;;;24.45;40.99;101442.38;4980423;28;20473;-64
2023/06/17 09:21:03;;;;;;;20.38;7.68;;;;;;;24.62;41.38;101439.84;4986325;28;20085;-64
2023/06/17 09:23:29;;;;;;;20.48;6.80;;;;;;;24.81;38.60;101436.31;4984822;28;20035;-64
2023/06/17 09:26:04;;;;;;;16.90;6.18;;;;;;;25.02;40.29;101437.16;4986908;28;20057;-61
2023/06/17 09:28:31;;;;;;;18.85;6.15;;;;;;;25.18;39.74;101431.88;4983465;28;20050;-64
2023/06/17 09:30:59;;;;;;;19.10;6.47;;;;;;;25.35;40.25;101440.09;4986117;28;20073;-62
2023/06/17 09:33:26;;;;;;;20.50;6.38;;;;;;;25.32;39.76;101437.50;4985114;28;20385;-61
2023/06/17 09:36:01;;;;;;;17.85;6.13;;;;;;;25.25;40.01;101430.59;4986156;28;20030;-64
2023/06/17 09:38:28;;;;;;;17.85;6.40;;;;;;;25.42;37.41;101434.38;4985348;28;20034;-60
2023/06/17 09:40:54;;;;;;;58.00;13.00;;;;;;;25.71;38.85;101432.94;4985752;28;20022;-62
2023/06/17 09:43:26;;;;;;;17.67;5.97;;;;;;;25.63;39.16;101433.31;4984187;28;20031;-61
2023/06/17 09:46:03;;;;;;;16.33;6.07;;;;;;;25.55;37.33;101430.97;4985619;28;20035;-63
2023/06/17 09:48:32;;;;;;;18.50;6.03;;;;;;;25.52;36.65;101427.56;4984048;28;20382;-63
2023/06/17 09:50:58;;;;;;;20.73;6.25;;;;;;;25.53;36.51;101432.91;4986552;28;20481;-61
2023/06/17 09:53:29;;;;;;;17.58;6.05;;;;;;;25.71;36.47;101436.50;4984082;28;20062;-63
2023/06/17 09:55:57;;;;;;;20.30;6.07;;;;;;;25.71;36.89;101428.38;4986643;28;20426;-61
2023/06/17 09:58:26;;;;;;;20.05;6.10;;;;;;;25.89;36.38;101432.00;4986797;28;20121;-64
2023/06/17 10:00:54;;;;;;;16.58;6.13;;;;;;;26.30;35.52;101429.97;4979269;28;20477;-61
2023/06/17 10:03:20;;;;;;;16.90;5.60;;;;;;;26.61;33.68;101434.63;4986343;28;20030;-61
2023/06/17 10:06:08;;;;;;;19.08;6.07;;;;;;;27.05;34.16;101431.34;4983741;28;20049;-61
2023/06/17 10:08:36;;;;;;;17.92;5.63;;;;;;;28.72;31.26;101440.59;4972342;28;20129;-61
2023/06/17 10:11:01;;;;;;;19.38;5.75;;;;;;;30.44;28.87;101422.00;4984490;28;20033;-64
2023/06/17 10:13:32;;;;;;;15.32;5.20;;;;;;;32.08;26.95;101426.34;4985297;28;20034;-61
2023/06/17 10:15:59;;;;;;;15.38;5.30;;;;;;;33.57;25.12;101420.81;4984209;28;20023;-61
2023/06/17 10:18:26;;;;;;;15.85;5.43;;;;;;;34.07;24.84;101418.41;4985386;28;20481;-63
2023/06/17 10:20:53;;;;;;;17.25;5.50;;;;;;;34.52;25.32;101420.03;4983904;28;20027;-61
2023/06/17 10:23:21;;;;;;;16.23;5.18;;;;;;;34.65;23.54;101428.91;4985135;28;20389;-65
2023/06/17 10:25:47;;;;;;;14.80;5.05;;;;;;;35.50;22.44;101418.50;4983755;28;20053;-63
2023/06/17 10:28:16;;;;;;;14.32;5.40;;;;;;;36.31;22.76;101425.63;4985697;28;20035;-62
2023/06/17 10:30:46;;;;;;;14.10;5.20;;;;;;;35.85;21.99;101416.25;4982776;28;20035;-61
2023/06/17 10:33:11;;;;;;;13.95;5.10;;;;;;;36.37;21.69;101421.44;4982083;28;20026;-70
2023/06/17 10:35:42;;;;;;;14.90;5.13;;;;;;;36.97;20.57;101419.16;4983474;28;20035;-69
2023/06/17 10:38:09;;;;;;;15.20;5.27;;;;;;;37.20;20.12;101412.41;4983561;28;20054;-70
2023/06/17 10:40:39;;;;;;;13.02;4.88;;;;;;;37.80;19.99;101415.47;4983132;28;20035;-69
2023/06/17 10:43:04;;;;;;;12.75;5.00;;;;;;;38.23;18.72;101412.03;4985377;28;20120;-70
2023/06/17 10:45:54;;;;;;;14.07;5.10;;;;;;;38.77;19.30;101412.75;4984341;28;20026;-69
2023/06/17 10:48:30;;;;;;;18.00;5.35;;;;;;;37.66;19.88;101405.84;4979110;28;20446;-70
2023/06/17 10:51:00;;;;;;;14.05;5.20;;;;;;;37.61;19.71;101404.59;4980249;28;20072;-70
2023/06/17 10:53:27;;;;;;;14.88;5.50;;;;;;;37.84;19.28;101407.75;4985185;28;20548;-70
2023/06/17 10:55:53;;;;;;;15.32;5.20;;;;;;;37.89;19.21;101412.78;4982634;28;20042;-70
2023/06/17 10:58:18;;;;;;;16.02;5.28;;;;;;;38.16;18.84;101407.16;4983113;28;20109;-70
2023/06/17 11:00:44;;;;;;;17.20;5.47;;;;;;;38.37;19.11;101400.41;4985278;28;20118;-70
2023/06/17 11:03:09;;;;;;;15.25;4.80;;;;;;;38.33;19.31;101399.00;4982257;28;20035;-70
2023/06/17 11:05:38;;;;;;;13.88;5.10;;;;;;;37.80;19.12;101401.69;4984889;28;20041;-70